createdAt,value
2023-03-16T00:01:39.318Z,52.94
2023-03-16T00:04:13.975Z,55.81
2023-03-16T00:07:02.337Z,58.54
2023-03-16T00:09:41.302Z,59.61
2023-03-16T00:12:32.307Z,62.55
2023-03-16T00:15:27.323Z,67.97
2023-03-16T00:18:15.317Z,55.80
2023-03-16T00:20:50.431Z,51.98
2023-03-16T00:23:42.320Z,54.51
2023-03-16T00:26:24.537Z,57.34
2023-03-16T00:29:19.414Z,59.84
2023-03-16T00:32:07.502Z,61.53
2023-03-16T00:34:45.180Z,66.48
2023-03-16T00:37:34.389Z,59.85
2023-03-16T00:40:16.305Z,51.75
2023-03-16T00:42:57.718Z,53.29
2023-03-16T00:45:46.330Z,56.56
2023-03-16T00:48:31.312Z,59.09
2023-03-16T00:51:23.296Z,61.07
2023-03-16T00:53:57.772Z,67.41
2023-03-16T00:56:45.303Z,62.14
2023-03-16T00:59:43.308Z,52.44
2023-03-16T01:02:33.303Z,53.44
2023-03-16T01:05:09.479Z,57.17
2023-03-16T01:07:59.309Z,60.00
2023-03-16T01:10:34.430Z,62.73
2023-03-16T01:13:22.513Z,67.18
2023-03-16T01:16:05.299Z,61.75
2023-03-16T01:19:00.288Z,51.05
2023-03-16T01:21:49.304Z,50.96
2023-03-16T01:24:24.911Z,54.36
2023-03-16T01:27:14.316Z,57.81
2023-03-16T01:29:56.494Z,60.00
2023-03-16T01:32:44.540Z,64.51
2023-03-16T01:35:22.024Z,67.52
2023-03-16T01:38:11.493Z,56.50
2023-03-16T01:40:47.145Z,51.12
2023-03-16T01:43:38.289Z,54.20
2023-03-16T01:46:21.586Z,57.49
2023-03-16T01:49:46.288Z,61.08
2023-03-16T01:52:45.497Z,68.24
2023-03-16T01:55:34.496Z,57.56
2023-03-16T01:58:09.648Z,52.20
2023-03-16T02:00:57.492Z,54.61
2023-03-16T02:03:42.474Z,58.75
2023-03-16T02:06:37.510Z,60.54
2023-03-16T02:09:26.487Z,63.12
2023-03-16T02:12:09.505Z,67.56
2023-03-16T02:15:05.298Z,58.90
2023-03-16T02:17:54.300Z,53.74
2023-03-16T02:20:55.606Z,55.91
2023-03-16T02:23:43.480Z,60.56
2023-03-16T02:26:23.210Z,63.65
2023-03-16T02:29:46.279Z,68.92
2023-03-16T02:32:28.322Z,56.21
2023-03-16T02:35:24.444Z,52.35
2023-03-16T02:38:19.496Z,55.55
2023-03-16T02:41:24.311Z,58.56
2023-03-16T02:44:03.166Z,61.24
2023-03-16T02:46:53.334Z,69.44
2023-03-16T02:49:46.277Z,66.31
2023-03-16T02:52:41.282Z,53.96
2023-03-16T02:55:29.280Z,53.21
2023-03-16T02:58:10.288Z,57.04
2023-03-16T03:01:05.289Z,58.42
2023-03-16T03:03:53.260Z,63.82
2023-03-16T03:06:34.266Z,68.59
2023-03-16T03:09:22.271Z,58.02
2023-03-16T03:12:10.281Z,51.65
2023-03-16T03:14:44.676Z,54.97
2023-03-16T03:17:36.282Z,58.10
2023-03-16T03:20:17.576Z,60.94
2023-03-16T03:23:05.269Z,62.99
2023-03-16T03:25:39.672Z,69.78
2023-03-16T03:28:27.276Z,59.14
2023-03-16T03:31:08.310Z,51.49
2023-03-16T03:33:49.395Z,52.91
2023-03-16T03:36:30.474Z,55.75
2023-03-16T03:39:12.600Z,58.20
2023-03-16T03:41:54.252Z,59.74
2023-03-16T03:44:42.269Z,60.78
2023-03-16T03:47:16.722Z,70.17
2023-03-16T03:50:04.479Z,67.42
2023-03-16T03:52:46.276Z,58.01
2023-03-16T03:55:27.374Z,50.28
2023-03-16T03:58:08.464Z,52.03
2023-03-16T04:00:50.587Z,55.26
2023-03-16T04:03:32.310Z,59.15
2023-03-16T04:06:13.584Z,59.76
2023-03-16T04:08:55.450Z,65.25
2023-03-16T04:11:36.603Z,69.04
2023-03-16T04:14:18.274Z,56.97
2023-03-16T04:16:59.471Z,49.77
2023-03-16T04:19:47.244Z,52.42
2023-03-16T04:22:23.660Z,55.65
2023-03-16T04:25:12.465Z,58.32
2023-03-16T04:27:55.343Z,60.11
2023-03-16T04:30:50.490Z,66.83
2023-03-16T04:33:39.246Z,68.46
2023-03-16T04:36:14.640Z,54.60
2023-03-16T04:39:02.462Z,50.50
2023-03-16T04:41:45.467Z,52.96
2023-03-16T04:44:40.262Z,55.30
2023-03-16T04:47:30.231Z,57.18
2023-03-16T04:50:11.254Z,58.55
2023-03-16T04:53:06.238Z,59.48
2023-03-16T04:56:01.280Z,60.43
2023-03-16T04:58:56.257Z,71.65
2023-03-16T05:01:39.123Z,67.88
2023-03-16T05:04:28.249Z,55.49
2023-03-16T05:07:23.240Z,50.49
2023-03-16T05:10:11.317Z,53.73
2023-03-16T05:12:53.234Z,56.26
2023-03-16T05:15:41.306Z,58.74
2023-03-16T05:18:16.573Z,59.78
2023-03-16T05:21:04.253Z,61.84
2023-03-16T05:23:39.373Z,71.58
2023-03-16T05:26:27.245Z,66.71
2023-03-16T05:29:02.557Z,52.98
2023-03-16T05:31:53.260Z,51.01
2023-03-16T05:34:27.392Z,53.37
2023-03-16T05:37:15.448Z,56.37
2023-03-16T05:39:50.613Z,58.01
2023-03-16T05:42:38.483Z,60.36
2023-03-16T05:45:21.246Z,60.35
2023-03-16T05:48:09.249Z,68.00
2023-03-16T05:50:51.256Z,69.74
2023-03-16T05:53:42.370Z,57.37
2023-03-16T05:56:17.372Z,49.59
2023-03-16T05:59:05.223Z,51.09
2023-03-16T06:01:47.221Z,53.50
2023-03-16T06:04:29.524Z,55.88
2023-03-16T06:07:18.258Z,56.51
2023-03-16T06:09:59.244Z,57.29
2023-03-16T06:12:47.264Z,59.04
2023-03-16T06:15:25.262Z,60.00
2023-03-16T06:18:13.242Z,61.22
2023-03-16T06:20:47.693Z,70.38
2023-03-16T06:23:35.251Z,67.07
2023-03-16T06:26:09.774Z,51.77
2023-03-16T06:28:57.403Z,49.48
2023-03-16T06:31:34.272Z,51.81
2023-03-16T06:34:22.313Z,54.28
2023-03-16T06:37:03.229Z,56.19
2023-03-16T06:39:51.253Z,56.95
2023-03-16T06:42:25.746Z,58.59
2023-03-16T06:45:13.236Z,58.76
2023-03-16T06:47:54.240Z,60.47
2023-03-16T06:50:35.405Z,60.82
2023-03-16T06:53:16.743Z,60.96
2023-03-16T06:56:05.234Z,61.41
2023-03-16T06:58:46.242Z,70.06
2023-03-16T07:01:34.285Z,64.16
2023-03-16T07:04:29.337Z,51.40
2023-03-16T07:07:18.244Z,49.49
2023-03-16T07:09:53.356Z,50.36
2023-03-16T07:12:41.244Z,52.64
2023-03-16T07:15:23.236Z,54.63
2023-03-16T07:18:11.230Z,55.60
2023-03-16T07:20:53.859Z,56.12
2023-03-16T07:23:43.510Z,56.72
2023-03-16T07:26:19.487Z,57.39
2023-03-16T07:29:07.284Z,59.05
2023-03-16T07:31:43.126Z,59.49
2023-03-16T07:34:35.616Z,60.50
2023-03-16T07:37:25.055Z,59.99
2023-03-16T07:40:21.555Z,59.72
2023-03-16T07:43:16.372Z,59.08
2023-03-16T07:46:04.440Z,59.28
2023-03-16T07:48:43.355Z,59.22
2023-03-16T07:51:34.379Z,59.39
2023-03-16T07:54:09.421Z,58.71
2023-03-16T07:57:04.243Z,59.40
2023-03-16T07:59:52.233Z,57.69
2023-03-16T08:03:09.606Z,58.67
2023-03-16T08:05:51.934Z,58.76
2023-03-16T08:08:34.251Z,58.12
2023-03-16T08:11:16.439Z,56.34
2023-03-16T08:13:54.702Z,56.73
2023-03-16T08:16:46.377Z,57.13
2023-03-16T08:19:24.147Z,55.07
2023-03-16T08:22:14.243Z,57.08
2023-03-16T08:24:55.332Z,57.10
2023-03-16T08:27:36.224Z,56.40
2023-03-16T08:30:26.270Z,54.91
2023-03-16T08:33:01.744Z,56.22
2023-03-16T08:35:51.266Z,54.99
2023-03-16T08:38:25.646Z,54.29
2023-03-16T08:41:13.220Z,55.21
2023-03-16T08:43:48.271Z,54.08
2023-03-16T08:46:37.487Z,53.99
2023-03-16T08:49:14.423Z,54.29
2023-03-16T08:52:03.397Z,53.90
2023-03-16T08:54:41.710Z,53.89
2023-03-16T08:57:31.193Z,54.43
2023-03-16T09:00:20.222Z,53.45
2023-03-16T09:03:09.206Z,53.32
2023-03-16T09:05:43.643Z,51.11
2023-03-16T09:08:31.211Z,51.37
2023-03-16T09:11:15.209Z,51.71
2023-03-16T09:13:56.344Z,51.52
2023-03-16T09:16:37.203Z,51.97
2023-03-16T09:19:25.175Z,47.89
2023-03-16T09:21:59.571Z,52.27
2023-03-16T09:24:47.194Z,51.25
2023-03-16T09:27:22.903Z,47.54
2023-03-16T09:30:12.157Z,46.69
2023-03-16T09:32:49.068Z,47.06
2023-03-16T09:35:37.251Z,47.98
2023-03-16T09:38:11.648Z,46.99
2023-03-16T09:41:02.182Z,44.74
2023-03-16T09:43:46.254Z,48.39
2023-03-16T09:46:49.176Z,47.04
2023-03-16T09:49:44.158Z,47.26
2023-03-16T09:52:57.378Z,46.55
2023-03-16T09:55:46.168Z,48.16
2023-03-16T09:58:24.326Z,47.86
2023-03-16T10:01:19.231Z,47.62
2023-03-16T10:03:59.553Z,47.81
2023-03-16T10:07:01.497Z,47.58
2023-03-16T10:09:43.282Z,45.49
2023-03-16T10:12:39.210Z,45.70
2023-03-16T10:15:19.534Z,45.55
2023-03-16T10:18:14.284Z,45.65
2023-03-16T10:20:50.404Z,44.10
2023-03-16T10:23:41.957Z,44.09
2023-03-16T10:26:34.160Z,43.08
2023-03-16T10:29:20.381Z,43.72
2023-03-16T10:32:10.349Z,43.58
2023-03-16T10:35:08.357Z,45.04
2023-03-16T10:37:49.589Z,44.00
2023-03-16T10:40:31.417Z,42.83
2023-03-16T10:43:20.282Z,43.17
2023-03-16T10:46:07.318Z,43.83
2023-03-16T10:48:55.141Z,43.66
2023-03-16T10:51:38.176Z,43.25
2023-03-16T10:54:41.175Z,42.01
2023-03-16T10:57:42.238Z,42.17
2023-03-16T11:00:29.053Z,40.70
2023-03-16T11:03:19.174Z,41.43
2023-03-16T11:06:19.167Z,40.23
2023-03-16T11:09:42.187Z,41.76
2023-03-16T11:12:28.176Z,41.63
2023-03-16T11:15:27.189Z,42.48
2023-03-16T11:18:25.162Z,39.58
2023-03-16T11:21:00.664Z,36.00
2023-03-16T11:23:53.161Z,34.79
2023-03-16T11:26:40.270Z,36.31
2023-03-16T11:29:27.192Z,38.79
2023-03-16T11:32:14.220Z,38.35
2023-03-16T11:34:56.237Z,37.55
2023-03-16T11:37:37.274Z,38.38
2023-03-16T11:40:40.156Z,38.40
2023-03-16T11:43:55.187Z,38.21
2023-03-16T11:46:32.254Z,38.56
2023-03-16T11:49:41.183Z,38.67
2023-03-16T11:52:24.825Z,37.81
2023-03-16T11:55:57.179Z,38.89
2023-03-16T11:58:45.329Z,39.25
2023-03-16T12:02:10.531Z,39.85
2023-03-16T12:05:29.260Z,39.02
2023-03-16T12:08:26.164Z,39.03
2023-03-16T12:11:40.976Z,37.39
2023-03-16T12:14:36.185Z,37.25
2023-03-16T12:17:18.972Z,37.84
2023-03-16T12:20:20.156Z,38.61
2023-03-16T12:23:30.219Z,37.99
2023-03-16T12:26:12.728Z,38.98
2023-03-16T12:29:01.158Z,39.46
2023-03-16T12:31:41.633Z,39.87
2023-03-16T12:34:52.184Z,37.58
2023-03-16T12:37:29.715Z,35.42
2023-03-16T12:40:29.241Z,35.85
2023-03-16T12:43:29.213Z,36.08
2023-03-16T12:46:20.311Z,37.25
2023-03-16T12:49:09.153Z,38.16
2023-03-16T12:51:57.156Z,38.29
2023-03-16T12:54:38.159Z,38.23
2023-03-16T12:57:23.254Z,38.73
2023-03-16T13:00:07.173Z,38.81
2023-03-16T13:03:06.162Z,38.42
2023-03-16T13:06:00.151Z,37.79
2023-03-16T13:08:49.135Z,38.27
2023-03-16T13:11:23.442Z,38.87
2023-03-16T13:14:15.156Z,38.25
2023-03-16T13:16:51.586Z,36.72
2023-03-16T13:19:44.154Z,33.68
2023-03-16T13:23:05.224Z,32.69
2023-03-16T13:26:28.180Z,31.10
2023-03-16T13:29:32.150Z,28.38
2023-03-16T13:32:16.154Z,27.30
2023-03-16T13:35:13.147Z,27.97
2023-03-16T13:38:01.136Z,29.28
2023-03-16T13:40:39.063Z,31.86
2023-03-16T13:43:31.139Z,32.29
2023-03-16T13:46:13.207Z,31.98
2023-03-16T13:49:08.154Z,31.22
2023-03-16T13:51:56.153Z,31.50
2023-03-16T13:54:51.142Z,32.58
2023-03-16T13:57:44.140Z,33.56
2023-03-16T14:00:57.193Z,33.38
2023-03-16T14:03:38.557Z,34.05
2023-03-16T14:06:52.176Z,33.60
2023-03-16T14:09:29.618Z,34.47
2023-03-16T14:12:18.483Z,34.03
2023-03-16T14:14:56.444Z,33.04
2023-03-16T14:17:45.550Z,33.29
2023-03-16T14:20:23.382Z,34.66
2023-03-16T14:23:11.149Z,35.26
2023-03-16T14:25:45.864Z,35.83
2023-03-16T14:28:45.386Z,36.73
2023-03-16T14:31:53.364Z,36.73
2023-03-16T14:34:46.350Z,37.09
2023-03-16T14:37:23.494Z,38.00
2023-03-16T14:40:32.444Z,38.36
2023-03-16T14:43:09.823Z,38.24
2023-03-16T14:45:58.208Z,38.33
2023-03-16T14:48:33.834Z,37.33
2023-03-16T14:51:21.151Z,37.87
2023-03-16T14:54:02.319Z,38.27
2023-03-16T14:56:43.095Z,37.72
2023-03-16T14:59:31.157Z,36.87
2023-03-16T15:02:07.046Z,37.06
2023-03-16T15:05:02.173Z,37.32
2023-03-16T15:07:57.133Z,37.15
2023-03-16T15:10:46.169Z,37.21
2023-03-16T15:13:37.356Z,36.58
2023-03-16T15:16:27.284Z,36.13
2023-03-16T15:19:02.328Z,35.64
2023-03-16T15:21:50.334Z,35.20
2023-03-16T15:24:26.519Z,35.55
2023-03-16T15:27:30.136Z,34.67
2023-03-16T15:30:04.481Z,34.93
2023-03-16T15:32:53.253Z,35.03
2023-03-16T15:35:28.260Z,34.14
2023-03-16T15:38:40.166Z,34.73
2023-03-16T15:41:32.449Z,35.15
2023-03-16T15:44:33.156Z,35.75
2023-03-16T15:47:22.181Z,36.08
2023-03-16T15:50:04.209Z,36.27
2023-03-16T15:53:04.139Z,36.95
2023-03-16T15:55:46.522Z,38.06
2023-03-16T15:58:35.355Z,39.04
2023-03-16T16:01:20.206Z,40.05
2023-03-16T16:04:16.222Z,40.60
2023-03-16T16:07:05.145Z,41.22
2023-03-16T16:09:46.174Z,41.46
2023-03-16T16:12:44.171Z,41.23
2023-03-16T16:15:40.142Z,41.01
2023-03-16T16:18:45.148Z,41.45
2023-03-16T16:21:30.913Z,41.63
2023-03-16T16:24:20.142Z,41.76
2023-03-16T16:26:55.894Z,42.08
2023-03-16T16:29:45.138Z,42.32
2023-03-16T16:32:24.532Z,42.68
2023-03-16T16:35:12.136Z,43.23
2023-03-16T16:37:47.071Z,43.12
2023-03-16T16:40:37.123Z,43.89
2023-03-16T16:43:28.066Z,44.55
2023-03-16T16:46:13.169Z,44.73
2023-03-16T16:48:59.163Z,45.83
2023-03-16T16:51:33.728Z,45.83
2023-03-16T16:54:44.150Z,46.07
2023-03-16T16:57:20.228Z,46.46
2023-03-16T17:00:08.110Z,47.00
2023-03-16T17:03:00.165Z,47.24
2023-03-16T17:05:35.227Z,47.44
2023-03-16T17:08:24.129Z,47.90
2023-03-16T17:11:00.158Z,48.05
2023-03-16T17:13:48.136Z,48.33
2023-03-16T17:16:36.180Z,48.58
2023-03-16T17:19:27.218Z,48.47
2023-03-16T17:22:16.417Z,49.11
2023-03-16T17:24:53.194Z,49.65
2023-03-16T17:27:44.465Z,50.50
2023-03-16T17:30:25.681Z,50.85
2023-03-16T17:33:21.159Z,50.55
2023-03-16T17:35:56.324Z,50.47
2023-03-16T17:38:45.137Z,50.25
2023-03-16T17:41:33.169Z,49.84
2023-03-16T17:44:20.171Z,49.49
2023-03-16T17:47:01.141Z,49.36
2023-03-16T17:49:42.288Z,49.38
2023-03-16T17:52:32.136Z,49.59
2023-03-16T17:55:20.292Z,49.71
2023-03-16T17:58:02.240Z,49.67
2023-03-16T18:00:53.126Z,49.80
2023-03-16T18:03:30.073Z,50.02
2023-03-16T18:06:19.144Z,50.12
2023-03-16T18:08:54.058Z,50.31
2023-03-16T18:11:53.124Z,50.34
2023-03-16T18:14:51.301Z,50.32
2023-03-16T18:17:39.109Z,50.24
2023-03-16T18:20:28.389Z,50.30
2023-03-16T18:23:29.250Z,50.14
2023-03-16T18:27:11.335Z,50.13
2023-03-16T18:30:14.835Z,50.04
2023-03-16T18:33:31.249Z,50.19
2023-03-16T18:36:44.222Z,50.24
2023-03-16T18:39:35.999Z,50.32
2023-03-16T18:42:26.171Z,50.39
2023-03-16T18:45:07.243Z,50.50
2023-03-16T18:47:51.126Z,50.69
2023-03-16T18:50:37.229Z,50.65
2023-03-16T18:53:22.115Z,50.88
2023-03-16T18:56:03.225Z,50.84
2023-03-16T18:58:46.442Z,51.01
2023-03-16T19:01:43.857Z,51.01
2023-03-16T19:04:34.139Z,51.18
2023-03-16T19:07:47.777Z,51.17
2023-03-16T19:10:32.609Z,50.99
2023-03-16T19:13:28.282Z,50.93
2023-03-16T19:16:30.128Z,50.76
2023-03-16T19:19:19.335Z,50.70
2023-03-16T19:21:59.095Z,50.64
2023-03-16T19:24:55.203Z,50.58
2023-03-16T19:27:56.002Z,50.49
2023-03-16T19:30:54.492Z,50.49
2023-03-16T19:33:46.119Z,50.47
2023-03-16T19:36:38.318Z,50.58
2023-03-16T19:39:29.141Z,50.56
2023-03-16T19:42:17.418Z,50.51
2023-03-16T19:44:59.240Z,50.55
2023-03-16T19:47:41.096Z,50.73
2023-03-16T19:50:27.272Z,50.81
2023-03-16T19:53:09.267Z,50.93
2023-03-16T19:56:02.095Z,51.16
2023-03-16T19:58:41.801Z,51.43
2023-03-16T20:01:35.164Z,51.57
2023-03-16T20:04:21.171Z,51.87
2023-03-16T20:07:09.122Z,52.20
2023-03-16T20:09:44.586Z,52.54
2023-03-16T20:12:38.323Z,52.77
2023-03-16T20:15:27.119Z,53.00
2023-03-16T20:18:13.378Z,53.12
2023-03-16T20:20:55.323Z,53.32
2023-03-16T20:23:44.312Z,53.37
2023-03-16T20:26:44.437Z,53.53
2023-03-16T20:29:40.317Z,53.30
2023-03-16T20:32:24.823Z,53.41
2023-03-16T20:35:25.106Z,53.38
2023-03-16T20:37:59.224Z,53.35
2023-03-16T20:40:49.081Z,53.57
2023-03-16T20:43:33.253Z,53.64
2023-03-16T20:46:24.100Z,53.61
2023-03-16T20:49:07.108Z,53.72
2023-03-16T20:52:03.091Z,53.92
2023-03-16T20:54:51.093Z,54.14
2023-03-16T20:57:31.374Z,54.17
2023-03-16T21:00:28.166Z,53.97
2023-03-16T21:03:12.099Z,53.92
2023-03-16T21:06:08.087Z,53.89
2023-03-16T21:09:00.138Z,53.79
2023-03-16T21:11:43.604Z,53.70
2023-03-16T21:14:32.100Z,53.59
2023-03-16T21:17:32.200Z,53.85
2023-03-16T21:20:25.067Z,54.76
2023-03-16T21:23:07.328Z,54.47
2023-03-16T21:25:53.075Z,54.81
2023-03-16T21:28:43.099Z,55.89
2023-03-16T21:31:25.155Z,55.98
2023-03-16T21:34:07.270Z,57.36
2023-03-16T21:36:48.090Z,58.07
2023-03-16T21:39:29.184Z,57.48
2023-03-16T21:42:10.126Z,58.25
2023-03-16T21:44:52.764Z,59.26
2023-03-16T21:47:35.130Z,60.23
2023-03-16T21:50:38.394Z,60.61
2023-03-16T21:53:32.088Z,60.49
2023-03-16T21:56:20.070Z,62.00
2023-03-16T21:58:55.035Z,60.62
2023-03-16T22:02:00.397Z,61.23
2023-03-16T22:04:36.825Z,61.81
2023-03-16T22:07:26.086Z,70.38
2023-03-16T22:10:07.075Z,75.04
2023-03-16T22:12:48.213Z,61.11
2023-03-16T22:15:36.072Z,47.54
2023-03-16T22:18:15.190Z,45.65
2023-03-16T22:21:04.353Z,46.24
2023-03-16T22:23:41.464Z,47.33
2023-03-16T22:26:30.080Z,48.63
2023-03-16T22:29:07.016Z,50.95
2023-03-16T22:31:55.212Z,52.57
2023-03-16T22:34:52.100Z,53.08
2023-03-16T22:37:47.189Z,52.64
2023-03-16T22:40:38.092Z,53.32
2023-03-16T22:43:22.188Z,53.82
2023-03-16T22:46:10.117Z,54.35
2023-03-16T22:48:45.316Z,54.67
2023-03-16T22:51:39.065Z,55.62
2023-03-16T22:54:22.358Z,56.88
2023-03-16T22:57:11.063Z,59.11
2023-03-16T22:59:48.772Z,59.41
2023-03-16T23:02:37.060Z,58.92
2023-03-16T23:05:32.373Z,58.39
2023-03-16T23:08:33.064Z,57.98
2023-03-16T23:11:28.260Z,57.72
2023-03-16T23:14:16.075Z,58.13
2023-03-16T23:16:58.130Z,58.35
2023-03-16T23:19:41.769Z,58.29
2023-03-16T23:22:23.057Z,58.45
2023-03-16T23:25:04.197Z,58.77
2023-03-16T23:27:45.082Z,59.39
2023-03-16T23:30:28.481Z,60.10
2023-03-16T23:33:10.154Z,59.96
2023-03-16T23:35:51.188Z,59.99
2023-03-16T23:38:32.080Z,60.40
2023-03-16T23:41:20.058Z,60.72
2023-03-16T23:43:54.511Z,60.76
2023-03-16T23:46:43.081Z,61.24
2023-03-16T23:49:39.049Z,61.51
2023-03-16T23:52:27.067Z,61.62
2023-03-16T23:55:08.063Z,61.91
2023-03-16T23:57:49.246Z,71.38
